Skip Navigation LinksHome page > Weather > Current weather Skip Navigation Links

Current Weather

Chicago O'Hare Intl, Chicago

For information only: do not use for flight planning or navigation.
Latest weather
Observation time Friday, May 14, 2021 6:51 AM CDT
Local time Friday, May 14, 2021 7:59 AM CDT
Flight conditions Visual Meteorological Conditions
Winds
Wind direction West-Northwest (290°)
Wind speed 6 mph
Visibility 10 mi.
Sky condition
Ceiling unlimited
Cloud layer few clouds 10,000 ft.
Temperature 51°F
Dewpoint 32°F
Altimeter 30.33 in.Hg
Pressure change last 3 hours-0.03 in.Hg
Pressure rising more quickly
Derived measurements
Relative humidity 48%
Density altitude -230 ft.
Sea-level pressure 30.32 in.Hg
Climate data
Temperature minimum, last 6 hours 48°F
Temperature maximum, last 6 hours 53°F
Remarks
System requires maintenance.
Automated weather observing station with precipitation discriminator.
METAR KORD 141151Z 29005KT 10SM FEW100 11/00 A3033 RMK AO2 SLP269 T01060000 10117 20089 53009 $

Settings

Location code

InnerDrive.Weather 4.0.6770.0 Release CLR 4.0.30319.42000
Copyright ©2018 Inner Drive Technology. All rights reserved. Portions Copyright ©1986-2018 David Braverman.

Find weather

Site navigation


Skip Navigation Links

Place info

Page info

PayPal - The safer, easier way to pay online!

Return home.

Copyright ©2021 Inner Drive Technology. Purveyors of fine, hand-crafted computer software. Page printed 2021-05-14T12:59:21 UTC.